首页
METAR-TAF:

METAR-TAF

机场 :

迪马普尔, 印度

纬度: 25-53-02N, 经度: 093-46-16E, 海拔: 148米

当前天气观测

该预报发布于14小时和28分钟前的11:00 UTC
风速4节,风向西北
温度 30°C
湿度 79%
气压 1002 hPa
能見度: 3500
散云层高于1800英尺
多云层高于9000英尺
轻雾,

METAR: VEMR 161100Z 32004KT 3500 BR SCT018 BKN090 30/26 Q1002 NOSIG

时间: 06:58 (01:28 UTC)

预报

该预报发布于2小时和28分钟前的23:00 UTC
预报有效从17日的 00点(UTC)到 17日的 09点(UTC)
风速节,风向
能見度: 2500
散云层高于1600英尺
少量云层高于2500英尺, 积雨云.
多云层高于9000英尺
小雨, 轻雾
成为
从 17日的 04点(UTC)到 17日的 06点(UTC)
风速5节,风向西转西北
能見度: 4000
散云层高于1800英尺
多云层高于10000英尺
小雨, 轻雾,

TAF: VEMR 162300Z 1700/1709 00000KT 2500 -RA BR SCT016 FEW025CB BKN090 BECMG 1704/1706 29005KT 4000 -RA BR SCT018 BKN100

超过4000个机场的气象观测和天气预报(METAR&TAF报告)。

可查询的气象台以黄色和红色小点在地图上表示。

将鼠标移到小点上方,可查看气象台名称。

然后点击查看天气观测和预报。

如需切换地图:点击带黑十字的绿色按钮放大地图;点击带横线的绿色按钮缩小地图;或者点击绿色箭头查看邻近地区的地图。


METAR-TAF: